sensor_id;sensor_type;location;lat;lon;timestamp;temperature;humidity
5009;DHT22;2523;51.058;6.922;2022-07-17T00:00:04;17.40;99.90
5009;DHT22;2523;51.058;6.922;2022-07-17T00:02:30;17.30;99.90
5009;DHT22;2523;51.058;6.922;2022-07-17T00:04:55;17.30;99.90
5009;DHT22;2523;51.058;6.922;2022-07-17T00:07:21;17.30;99.90
5009;DHT22;2523;51.058;6.922;2022-07-17T00:09:47;17.20;99.90
5009;DHT22;2523;51.058;6.922;2022-07-17T00:12:12;17.20;99.90
5009;DHT22;2523;51.058;6.922;2022-07-17T00:14:38;17.10;99.90
5009;DHT22;2523;51.058;6.922;2022-07-17T00:17:03;17.00;99.90
5009;DHT22;2523;51.058;6.922;2022-07-17T00:19:31;17.10;99.90
5009;DHT22;2523;51.058;6.922;2022-07-17T00:21:57;17.10;99.90
5009;DHT22;2523;51.058;6.922;2022-07-17T00:24:22;17.10;99.90
5009;DHT22;2523;51.058;6.922;2022-07-17T00:26:49;17.10;99.90
5009;DHT22;2523;51.058;6.922;2022-07-17T00:29:16;17.00;99.90
5009;DHT22;2523;51.058;6.922;2022-07-17T00:31:42;17.00;99.90
5009;DHT22;2523;51.058;6.922;2022-07-17T00:34:08;17.00;99.90
5009;DHT22;2523;51.058;6.922;2022-07-17T00:36:34;16.90;99.90
5009;DHT22;2523;51.058;6.922;2022-07-17T00:38:59;16.80;99.90
5009;DHT22;2523;51.058;6.922;2022-07-17T00:41:25;16.80;99.90
5009;DHT22;2523;51.058;6.922;2022-07-17T00:43:51;16.70;99.90
5009;DHT22;2523;51.058;6.922;2022-07-17T00:46:17;16.70;99.90
5009;DHT22;2523;51.058;6.922;2022-07-17T00:48:44;16.70;99.90
5009;DHT22;2523;51.058;6.922;2022-07-17T00:51:10;16.60;99.90
5009;DHT22;2523;51.058;6.922;2022-07-17T00:53:37;16.60;99.90
5009;DHT22;2523;51.058;6.922;2022-07-17T00:56:05;16.60;99.90
5009;DHT22;2523;51.058;6.922;2022-07-17T00:58:34;16.60;99.90
5009;DHT22;2523;51.058;6.922;2022-07-17T01:01:00;16.60;99.90
5009;DHT22;2523;51.058;6.922;2022-07-17T01:03:27;16.50;99.90
5009;DHT22;2523;51.058;6.922;2022-07-17T01:05:53;16.50;99.90
5009;DHT22;2523;51.058;6.922;2022-07-17T01:08:20;16.50;99.90
5009;DHT22;2523;51.058;6.922;2022-07-17T01:10:46;16.50;99.90
5009;DHT22;2523;51.058;6.922;2022-07-17T01:13:12;16.50;99.90
5009;DHT22;2523;51.058;6.922;2022-07-17T01:15:39;16.40;99.90
5009;DHT22;2523;51.058;6.922;2022-07-17T01:18:09;16.40;99.90
5009;DHT22;2523;51.058;6.922;2022-07-17T01:20:37;16.40;99.90
5009;DHT22;2523;51.058;6.922;2022-07-17T01:23:03;16.30;99.90
5009;DHT22;2523;51.058;6.922;2022-07-17T01:25:29;16.30;99.90
5009;DHT22;2523;51.058;6.922;2022-07-17T01:27:55;16.30;99.90
5009;DHT22;2523;51.058;6.922;2022-07-17T01:30:20;16.30;99.90
5009;DHT22;2523;51.058;6.922;2022-07-17T01:32:46;16.30;99.90
5009;DHT22;2523;51.058;6.922;2022-07-17T01:35:13;16.30;99.90
5009;DHT22;2523;51.058;6.922;2022-07-17T01:37:40;16.30;99.90
5009;DHT22;2523;51.058;6.922;2022-07-17T01:40:07;16.20;99.90
5009;DHT22;2523;51.058;6.922;2022-07-17T01:42:32;16.20;99.90
5009;DHT22;2523;51.058;6.922;2022-07-17T01:44:58;16.20;99.90
5009;DHT22;2523;51.058;6.922;2022-07-17T01:47:24;16.20;99.90
5009;DHT22;2523;51.058;6.922;2022-07-17T01:49:55;16.20;99.90
5009;DHT22;2523;51.058;6.922;2022-07-17T01:52:22;16.10;99.90
5009;DHT22;2523;51.058;6.922;2022-07-17T01:54:48;16.10;99.90
5009;DHT22;2523;51.058;6.922;2022-07-17T01:57:14;16.10;99.90
5009;DHT22;2523;51.058;6.922;2022-07-17T01:59:40;16.00;99.90
5009;DHT22;2523;51.058;6.922;2022-07-17T02:02:06;16.00;99.90
5009;DHT22;2523;51.058;6.922;2022-07-17T02:04:36;16.00;99.90
5009;DHT22;2523;51.058;6.922;2022-07-17T02:07:03;16.00;99.90
5009;DHT22;2523;51.058;6.922;2022-07-17T02:09:29;16.10;99.90
5009;DHT22;2523;51.058;6.922;2022-07-17T02:11:55;16.00;99.90
5009;DHT22;2523;51.058;6.922;2022-07-17T02:14:21;16.00;99.90
5009;DHT22;2523;51.058;6.922;2022-07-17T02:16:46;16.00;99.90
5009;DHT22;2523;51.058;6.922;2022-07-17T02:19:12;15.90;99.90
5009;DHT22;2523;51.058;6.922;2022-07-17T02:21:38;15.90;99.90
5009;DHT22;2523;51.058;6.922;2022-07-17T02:24:04;15.90;99.90
5009;DHT22;2523;51.058;6.922;2022-07-17T02:26:29;15.90;99.90
5009;DHT22;2523;51.058;6.922;2022-07-17T02:28:55;15.90;99.90
5009;DHT22;2523;51.058;6.922;2022-07-17T02:31:21;15.90;99.90
5009;DHT22;2523;51.058;6.922;2022-07-17T02:33:47;15.80;99.90
5009;DHT22;2523;51.058;6.922;2022-07-17T02:36:12;15.70;99.90
5009;DHT22;2523;51.058;6.922;2022-07-17T02:38:38;15.70;99.90
5009;DHT22;2523;51.058;6.922;2022-07-17T02:41:03;15.70;99.90
5009;DHT22;2523;51.058;6.922;2022-07-17T02:43:29;15.70;99.90
5009;DHT22;2523;51.058;6.922;2022-07-17T02:45:54;15.80;99.90
5009;DHT22;2523;51.058;6.922;2022-07-17T02:48:20;15.80;99.90
5009;DHT22;2523;51.058;6.922;2022-07-17T02:50:45;15.60;99.90
5009;DHT22;2523;51.058;6.922;2022-07-17T02:53:11;15.60;99.90
5009;DHT22;2523;51.058;6.922;2022-07-17T02:55:36;15.60;99.90
5009;DHT22;2523;51.058;6.922;2022-07-17T02:58:02;15.60;99.90
5009;DHT22;2523;51.058;6.922;2022-07-17T03:00:28;15.60;99.90
5009;DHT22;2523;51.058;6.922;2022-07-17T03:02:54;15.50;99.90
5009;DHT22;2523;51.058;6.922;2022-07-17T03:05:20;15.50;99.90
5009;DHT22;2523;51.058;6.922;2022-07-17T03:07:46;15.30;99.90
5009;DHT22;2523;51.058;6.922;2022-07-17T03:10:13;15.20;99.90
5009;DHT22;2523;51.058;6.922;2022-07-17T03:12:39;15.10;99.90
5009;DHT22;2523;51.058;6.922;2022-07-17T03:15:05;15.10;99.90
5009;DHT22;2523;51.058;6.922;2022-07-17T03:17:31;15.00;99.90
5009;DHT22;2523;51.058;6.922;2022-07-17T03:19:57;14.90;99.90
5009;DHT22;2523;51.058;6.922;2022-07-17T03:22:22;15.00;99.90
5009;DHT22;2523;51.058;6.922;2022-07-17T03:24:48;15.00;99.90
5009;DHT22;2523;51.058;6.922;2022-07-17T03:27:14;15.00;99.90
5009;DHT22;2523;51.058;6.922;2022-07-17T03:29:40;15.00;99.90
5009;DHT22;2523;51.058;6.922;2022-07-17T03:32:06;15.00;99.90
5009;DHT22;2523;51.058;6.922;2022-07-17T03:34:31;15.10;99.90
5009;DHT22;2523;51.058;6.922;2022-07-17T03:36:57;15.00;99.90
5009;DHT22;2523;51.058;6.922;2022-07-17T03:39:22;15.10;99.90
5009;DHT22;2523;51.058;6.922;2022-07-17T03:41:48;15.00;99.90
5009;DHT22;2523;51.058;6.922;2022-07-17T03:44:14;14.90;99.90
5009;DHT22;2523;51.058;6.922;2022-07-17T03:46:39;14.90;99.90
5009;DHT22;2523;51.058;6.922;2022-07-17T03:49:05;15.00;99.90
5009;DHT22;2523;51.058;6.922;2022-07-17T03:51:31;15.00;99.90
5009;DHT22;2523;51.058;6.922;2022-07-17T03:53:56;15.00;99.90
5009;DHT22;2523;51.058;6.922;2022-07-17T03:56:22;15.00;99.90
5009;DHT22;2523;51.058;6.922;2022-07-17T03:58:48;15.00;99.90
5009;DHT22;2523;51.058;6.922;2022-07-17T04:01:14;14.90;99.90
5009;DHT22;2523;51.058;6.922;2022-07-17T04:03:39;14.90;99.90
5009;DHT22;2523;51.058;6.922;2022-07-17T04:06:05;15.00;99.90
5009;DHT22;2523;51.058;6.922;2022-07-17T04:08:31;14.90;99.90
5009;DHT22;2523;51.058;6.922;2022-07-17T04:10:57;14.90;99.90
5009;DHT22;2523;51.058;6.922;2022-07-17T04:13:23;14.90;99.90
5009;DHT22;2523;51.058;6.922;2022-07-17T04:15:48;14.90;99.90
5009;DHT22;2523;51.058;6.922;2022-07-17T04:18:27;14.90;99.90
5009;DHT22;2523;51.058;6.922;2022-07-17T04:20:56;14.90;99.90
5009;DHT22;2523;51.058;6.922;2022-07-17T04:23:22;14.90;99.90
5009;DHT22;2523;51.058;6.922;2022-07-17T04:25:47;14.90;99.90
5009;DHT22;2523;51.058;6.922;2022-07-17T04:28:13;14.90;99.90
5009;DHT22;2523;51.058;6.922;2022-07-17T04:30:39;14.90;99.90
5009;DHT22;2523;51.058;6.922;2022-07-17T04:33:05;14.90;99.90
5009;DHT22;2523;51.058;6.922;2022-07-17T04:35:31;14.90;99.90
5009;DHT22;2523;51.058;6.922;2022-07-17T04:37:57;14.90;99.90
5009;DHT22;2523;51.058;6.922;2022-07-17T04:40:23;15.00;99.90
5009;DHT22;2523;51.058;6.922;2022-07-17T04:42:48;15.00;99.90
5009;DHT22;2523;51.058;6.922;2022-07-17T04:45:14;15.10;99.90
5009;DHT22;2523;51.058;6.922;2022-07-17T04:47:40;15.10;99.90
5009;DHT22;2523;51.058;6.922;2022-07-17T04:50:06;15.20;99.90
5009;DHT22;2523;51.058;6.922;2022-07-17T04:52:32;15.20;99.90
5009;DHT22;2523;51.058;6.922;2022-07-17T04:54:58;15.30;99.90
5009;DHT22;2523;51.058;6.922;2022-07-17T04:57:23;15.30;99.90
5009;DHT22;2523;51.058;6.922;2022-07-17T04:59:49;15.50;99.90
5009;DHT22;2523;51.058;6.922;2022-07-17T05:02:14;15.50;99.90
5009;DHT22;2523;51.058;6.922;2022-07-17T05:04:40;15.60;99.90
5009;DHT22;2523;51.058;6.922;2022-07-17T05:07:06;15.70;99.90
5009;DHT22;2523;51.058;6.922;2022-07-17T05:09:31;15.70;99.90
5009;DHT22;2523;51.058;6.922;2022-07-17T05:11:57;15.70;99.90
5009;DHT22;2523;51.058;6.922;2022-07-17T05:14:22;15.70;99.90
5009;DHT22;2523;51.058;6.922;2022-07-17T05:16:48;15.80;99.90
5009;DHT22;2523;51.058;6.922;2022-07-17T05:19:13;15.80;99.90
5009;DHT22;2523;51.058;6.922;2022-07-17T05:21:39;15.90;99.90
5009;DHT22;2523;51.058;6.922;2022-07-17T05:24:05;16.00;99.90
5009;DHT22;2523;51.058;6.922;2022-07-17T05:26:30;16.00;99.90
5009;DHT22;2523;51.058;6.922;2022-07-17T05:28:56;16.20;99.90
5009;DHT22;2523;51.058;6.922;2022-07-17T05:31:21;16.20;99.90
5009;DHT22;2523;51.058;6.922;2022-07-17T05:33:47;16.30;99.90
5009;DHT22;2523;51.058;6.922;2022-07-17T05:36:13;16.30;99.90
5009;DHT22;2523;51.058;6.922;2022-07-17T05:38:38;16.40;99.90
5009;DHT22;2523;51.058;6.922;2022-07-17T05:41:04;16.40;99.90
5009;DHT22;2523;51.058;6.922;2022-07-17T05:43:30;16.40;99.90
5009;DHT22;2523;51.058;6.922;2022-07-17T05:45:57;16.30;99.90
5009;DHT22;2523;51.058;6.922;2022-07-17T05:48:23;16.40;99.90
5009;DHT22;2523;51.058;6.922;2022-07-17T05:50:49;16.50;99.90
5009;DHT22;2523;51.058;6.922;2022-07-17T05:53:14;16.50;99.90
5009;DHT22;2523;51.058;6.922;2022-07-17T05:55:41;16.50;99.90
5009;DHT22;2523;51.058;6.922;2022-07-17T05:58:06;16.50;99.90
5009;DHT22;2523;51.058;6.922;2022-07-17T06:00:32;16.50;99.90
5009;DHT22;2523;51.058;6.922;2022-07-17T06:02:58;16.50;99.90
5009;DHT22;2523;51.058;6.922;2022-07-17T06:05:24;16.40;99.90
5009;DHT22;2523;51.058;6.922;2022-07-17T06:07:52;16.50;99.90
5009;DHT22;2523;51.058;6.922;2022-07-17T06:10:17;16.50;99.90
5009;DHT22;2523;51.058;6.922;2022-07-17T06:12:43;16.60;99.90
5009;DHT22;2523;51.058;6.922;2022-07-17T06:15:09;16.70;99.90
5009;DHT22;2523;51.058;6.922;2022-07-17T06:17:34;16.70;99.90
5009;DHT22;2523;51.058;6.922;2022-07-17T06:20:00;16.80;99.90
5009;DHT22;2523;51.058;6.922;2022-07-17T06:22:26;16.80;99.90
5009;DHT22;2523;51.058;6.922;2022-07-17T06:24:51;16.80;99.90
5009;DHT22;2523;51.058;6.922;2022-07-17T06:27:17;16.90;99.90
5009;DHT22;2523;51.058;6.922;2022-07-17T06:29:43;17.00;99.90
5009;DHT22;2523;51.058;6.922;2022-07-17T06:32:08;17.00;99.90
5009;DHT22;2523;51.058;6.922;2022-07-17T06:34:34;17.10;99.90
5009;DHT22;2523;51.058;6.922;2022-07-17T06:36:59;17.10;99.90
5009;DHT22;2523;51.058;6.922;2022-07-17T06:39:25;17.20;99.90
5009;DHT22;2523;51.058;6.922;2022-07-17T06:41:50;17.20;99.90
5009;DHT22;2523;51.058;6.922;2022-07-17T06:44:16;17.30;99.90
5009;DHT22;2523;51.058;6.922;2022-07-17T06:46:41;17.40;99.90
5009;DHT22;2523;51.058;6.922;2022-07-17T06:49:07;17.50;99.90
5009;DHT22;2523;51.058;6.922;2022-07-17T06:51:32;17.60;99.90
5009;DHT22;2523;51.058;6.922;2022-07-17T06:53:58;17.60;99.90
5009;DHT22;2523;51.058;6.922;2022-07-17T06:56:23;17.60;99.90
5009;DHT22;2523;51.058;6.922;2022-07-17T06:58:49;17.70;99.90
5009;DHT22;2523;51.058;6.922;2022-07-17T07:01:15;17.70;99.90
5009;DHT22;2523;51.058;6.922;2022-07-17T07:03:40;17.80;99.90
5009;DHT22;2523;51.058;6.922;2022-07-17T07:06:06;17.90;99.90
5009;DHT22;2523;51.058;6.922;2022-07-17T07:08:33;18.00;99.90
5009;DHT22;2523;51.058;6.922;2022-07-17T07:10:58;18.10;99.90
5009;DHT22;2523;51.058;6.922;2022-07-17T07:13:24;18.10;99.90
5009;DHT22;2523;51.058;6.922;2022-07-17T07:15:50;18.20;99.90
5009;DHT22;2523;51.058;6.922;2022-07-17T07:18:16;18.30;99.90
5009;DHT22;2523;51.058;6.922;2022-07-17T07:20:41;18.20;99.90
5009;DHT22;2523;51.058;6.922;2022-07-17T07:23:07;18.40;99.90
5009;DHT22;2523;51.058;6.922;2022-07-17T07:25:32;18.40;99.90
5009;DHT22;2523;51.058;6.922;2022-07-17T07:27:58;18.40;99.90
5009;DHT22;2523;51.058;6.922;2022-07-17T07:30:23;18.60;99.90
5009;DHT22;2523;51.058;6.922;2022-07-17T07:32:49;18.70;99.90
5009;DHT22;2523;51.058;6.922;2022-07-17T07:35:15;18.70;99.90
5009;DHT22;2523;51.058;6.922;2022-07-17T07:37:40;18.80;99.10
5009;DHT22;2523;51.058;6.922;2022-07-17T07:40:07;18.90;99.30
5009;DHT22;2523;51.058;6.922;2022-07-17T07:42:33;19.00;99.50
5009;DHT22;2523;51.058;6.922;2022-07-17T07:44:58;19.10;99.90
5009;DHT22;2523;51.058;6.922;2022-07-17T07:47:24;19.20;96.10
5009;DHT22;2523;51.058;6.922;2022-07-17T07:49:50;19.30;96.70
5009;DHT22;2523;51.058;6.922;2022-07-17T07:52:16;19.40;93.70
5009;DHT22;2523;51.058;6.922;2022-07-17T07:54:41;19.40;87.90
5009;DHT22;2523;51.058;6.922;2022-07-17T07:57:07;19.60;89.80
5009;DHT22;2523;51.058;6.922;2022-07-17T07:59:32;19.70;81.70
5009;DHT22;2523;51.058;6.922;2022-07-17T08:01:59;19.70;77.90
5009;DHT22;2523;51.058;6.922;2022-07-17T08:04:25;19.80;73.00
5009;DHT22;2523;51.058;6.922;2022-07-17T08:06:50;19.80;72.30
5009;DHT22;2523;51.058;6.922;2022-07-17T08:09:16;19.90;70.40
5009;DHT22;2523;51.058;6.922;2022-07-17T08:11:42;20.00;69.40
5009;DHT22;2523;51.058;6.922;2022-07-17T08:14:07;20.00;70.30
5009;DHT22;2523;51.058;6.922;2022-07-17T08:16:33;20.00;65.70
5009;DHT22;2523;51.058;6.922;2022-07-17T08:18:59;20.10;63.30
5009;DHT22;2523;51.058;6.922;2022-07-17T08:21:24;20.20;62.80
5009;DHT22;2523;51.058;6.922;2022-07-17T08:23:50;20.20;63.90
5009;DHT22;2523;51.058;6.922;2022-07-17T08:26:16;20.30;65.50
5009;DHT22;2523;51.058;6.922;2022-07-17T08:28:41;20.30;62.80
5009;DHT22;2523;51.058;6.922;2022-07-17T08:31:07;20.40;59.00
5009;DHT22;2523;51.058;6.922;2022-07-17T08:33:32;20.60;59.20
5009;DHT22;2523;51.058;6.922;2022-07-17T08:35:58;20.70;59.60
5009;DHT22;2523;51.058;6.922;2022-07-17T08:38:23;20.80;58.90
5009;DHT22;2523;51.058;6.922;2022-07-17T08:40:49;20.80;56.70
5009;DHT22;2523;51.058;6.922;2022-07-17T08:43:17;20.80;55.70
5009;DHT22;2523;51.058;6.922;2022-07-17T08:45:43;21.00;54.00
5009;DHT22;2523;51.058;6.922;2022-07-17T08:48:12;21.10;52.40
5009;DHT22;2523;51.058;6.922;2022-07-17T08:50:39;21.20;51.50
5009;DHT22;2523;51.058;6.922;2022-07-17T08:53:05;21.30;50.90
5009;DHT22;2523;51.058;6.922;2022-07-17T08:55:30;21.30;50.20
5009;DHT22;2523;51.058;6.922;2022-07-17T08:57:56;21.30;47.80
5009;DHT22;2523;51.058;6.922;2022-07-17T09:00:23;21.40;49.30
5009;DHT22;2523;51.058;6.922;2022-07-17T09:05:43;21.50;49.80
5009;DHT22;2523;51.058;6.922;2022-07-17T09:08:17;21.50;49.30
5009;DHT22;2523;51.058;6.922;2022-07-17T09:10:44;21.80;45.00
5009;DHT22;2523;51.058;6.922;2022-07-17T09:15:40;22.10;43.50
5009;DHT22;2523;51.058;6.922;2022-07-17T09:18:06;22.00;43.40
5009;DHT22;2523;51.058;6.922;2022-07-17T09:20:31;22.10;41.40
5009;DHT22;2523;51.058;6.922;2022-07-17T09:22:59;22.20;40.90
5009;DHT22;2523;51.058;6.922;2022-07-17T09:25:38;22.40;40.30
5009;DHT22;2523;51.058;6.922;2022-07-17T09:28:05;22.30;40.40
5009;DHT22;2523;51.058;6.922;2022-07-17T09:30:32;22.40;40.10
5009;DHT22;2523;51.058;6.922;2022-07-17T09:32:58;22.50;39.10
5009;DHT22;2523;51.058;6.922;2022-07-17T09:35:24;22.60;38.30
5009;DHT22;2523;51.058;6.922;2022-07-17T09:37:54;22.80;38.60
5009;DHT22;2523;51.058;6.922;2022-07-17T09:40:21;22.90;38.30
5009;DHT22;2523;51.058;6.922;2022-07-17T09:43:05;23.00;38.00
5009;DHT22;2523;51.058;6.922;2022-07-17T09:45:33;23.20;37.70
5009;DHT22;2523;51.058;6.922;2022-07-17T09:47:59;23.00;37.90
5009;DHT22;2523;51.058;6.922;2022-07-17T09:50:27;23.10;39.40
5009;DHT22;2523;51.058;6.922;2022-07-17T09:52:56;23.20;38.90
5009;DHT22;2523;51.058;6.922;2022-07-17T09:55:29;23.20;39.10
5009;DHT22;2523;51.058;6.922;2022-07-17T09:57:58;23.30;38.30
5009;DHT22;2523;51.058;6.922;2022-07-17T10:00:25;23.40;37.20
5009;DHT22;2523;51.058;6.922;2022-07-17T10:02:51;23.70;36.10
5009;DHT22;2523;51.058;6.922;2022-07-17T10:05:17;23.70;35.50
5009;DHT22;2523;51.058;6.922;2022-07-17T10:07:44;23.70;33.80
5009;DHT22;2523;51.058;6.922;2022-07-17T10:10:15;23.70;33.60
5009;DHT22;2523;51.058;6.922;2022-07-17T10:12:48;23.80;33.70
5009;DHT22;2523;51.058;6.922;2022-07-17T10:15:16;23.80;33.10
5009;DHT22;2523;51.058;6.922;2022-07-17T10:17:42;23.90;34.10
5009;DHT22;2523;51.058;6.922;2022-07-17T10:20:09;24.10;34.60
5009;DHT22;2523;51.058;6.922;2022-07-17T10:22:43;23.90;34.00
5009;DHT22;2523;51.058;6.922;2022-07-17T10:25:14;24.20;34.10
5009;DHT22;2523;51.058;6.922;2022-07-17T10:27:50;24.30;31.30
5009;DHT22;2523;51.058;6.922;2022-07-17T10:30:29;24.20;30.30
5009;DHT22;2523;51.058;6.922;2022-07-17T10:32:59;24.30;30.30
5009;DHT22;2523;51.058;6.922;2022-07-17T10:35:26;24.40;31.30
5009;DHT22;2523;51.058;6.922;2022-07-17T10:37:53;24.70;32.50
5009;DHT22;2523;51.058;6.922;2022-07-17T10:40:20;24.80;29.90
5009;DHT22;2523;51.058;6.922;2022-07-17T10:50:17;24.80;28.50
5009;DHT22;2523;51.058;6.922;2022-07-17T10:52:44;24.90;29.10
5009;DHT22;2523;51.058;6.922;2022-07-17T10:55:20;24.90;30.20
5009;DHT22;2523;51.058;6.922;2022-07-17T10:57:47;25.40;30.30
5009;DHT22;2523;51.058;6.922;2022-07-17T11:00:15;25.50;30.60
5009;DHT22;2523;51.058;6.922;2022-07-17T11:02:41;25.70;30.40
5009;DHT22;2523;51.058;6.922;2022-07-17T11:05:09;25.90;29.30
5009;DHT22;2523;51.058;6.922;2022-07-17T11:07:35;25.90;29.60
5009;DHT22;2523;51.058;6.922;2022-07-17T11:10:00;26.10;29.50
5009;DHT22;2523;51.058;6.922;2022-07-17T11:12:35;26.10;28.90
5009;DHT22;2523;51.058;6.922;2022-07-17T11:15:02;26.10;28.60
5009;DHT22;2523;51.058;6.922;2022-07-17T11:17:27;26.00;27.60
5009;DHT22;2523;51.058;6.922;2022-07-17T11:19:53;26.10;28.30
5009;DHT22;2523;51.058;6.922;2022-07-17T11:22:22;26.20;28.00
5009;DHT22;2523;51.058;6.922;2022-07-17T11:24:49;26.60;28.80
5009;DHT22;2523;51.058;6.922;2022-07-17T11:27:26;26.80;29.60
5009;DHT22;2523;51.058;6.922;2022-07-17T11:29:54;26.90;28.70
5009;DHT22;2523;51.058;6.922;2022-07-17T11:32:20;27.10;27.50
5009;DHT22;2523;51.058;6.922;2022-07-17T11:34:46;27.00;25.80
5009;DHT22;2523;51.058;6.922;2022-07-17T11:37:12;27.10;24.80
5009;DHT22;2523;51.058;6.922;2022-07-17T11:39:44;27.30;24.50
5009;DHT22;2523;51.058;6.922;2022-07-17T11:42:17;27.50;23.60
5009;DHT22;2523;51.058;6.922;2022-07-17T11:44:43;27.70;24.20
5009;DHT22;2523;51.058;6.922;2022-07-17T11:47:10;28.00;23.60
5009;DHT22;2523;51.058;6.922;2022-07-17T11:49:38;28.00;22.30
5009;DHT22;2523;51.058;6.922;2022-07-17T11:52:17;27.70;21.00
5009;DHT22;2523;51.058;6.922;2022-07-17T11:57:11;27.70;21.00
5009;DHT22;2523;51.058;6.922;2022-07-17T11:59:36;27.60;20.90
5009;DHT22;2523;51.058;6.922;2022-07-17T12:02:14;27.80;20.90
5009;DHT22;2523;51.058;6.922;2022-07-17T12:04:53;27.70;21.90
5009;DHT22;2523;51.058;6.922;2022-07-17T12:07:20;27.60;21.50
5009;DHT22;2523;51.058;6.922;2022-07-17T12:09:46;27.50;22.30
5009;DHT22;2523;51.058;6.922;2022-07-17T12:12:25;27.60;23.20
5009;DHT22;2523;51.058;6.922;2022-07-17T12:14:56;27.60;22.90
5009;DHT22;2523;51.058;6.922;2022-07-17T12:17:23;27.90;22.50
5009;DHT22;2523;51.058;6.922;2022-07-17T12:19:50;27.50;20.10
5009;DHT22;2523;51.058;6.922;2022-07-17T12:22:16;27.60;21.70
5009;DHT22;2523;51.058;6.922;2022-07-17T12:24:44;27.90;22.30
5009;DHT22;2523;51.058;6.922;2022-07-17T12:27:14;28.20;22.60
5009;DHT22;2523;51.058;6.922;2022-07-17T12:29:42;28.30;22.40
5009;DHT22;2523;51.058;6.922;2022-07-17T12:32:15;28.50;22.00
5009;DHT22;2523;51.058;6.922;2022-07-17T12:34:43;28.50;22.20
5009;DHT22;2523;51.058;6.922;2022-07-17T12:37:15;28.60;22.20
5009;DHT22;2523;51.058;6.922;2022-07-17T12:39:42;28.60;22.70
5009;DHT22;2523;51.058;6.922;2022-07-17T12:42:07;28.80;22.50
5009;DHT22;2523;51.058;6.922;2022-07-17T12:44:35;29.10;22.40
5009;DHT22;2523;51.058;6.922;2022-07-17T12:47:01;28.80;21.50
5009;DHT22;2523;51.058;6.922;2022-07-17T12:49:27;29.00;21.30
5009;DHT22;2523;51.058;6.922;2022-07-17T12:51:52;29.20;20.90
5009;DHT22;2523;51.058;6.922;2022-07-17T12:54:18;29.30;22.30
5009;DHT22;2523;51.058;6.922;2022-07-17T12:56:43;29.30;20.90
5009;DHT22;2523;51.058;6.922;2022-07-17T12:59:09;29.30;22.20
5009;DHT22;2523;51.058;6.922;2022-07-17T13:01:35;29.40;21.30
5009;DHT22;2523;51.058;6.922;2022-07-17T13:04:01;29.40;21.60
5009;DHT22;2523;51.058;6.922;2022-07-17T13:06:27;29.50;21.80
5009;DHT22;2523;51.058;6.922;2022-07-17T13:08:52;29.00;21.10
5009;DHT22;2523;51.058;6.922;2022-07-17T13:11:18;28.80;21.20
5009;DHT22;2523;51.058;6.922;2022-07-17T13:13:44;28.70;22.10
5009;DHT22;2523;51.058;6.922;2022-07-17T13:16:10;28.90;21.30
5009;DHT22;2523;51.058;6.922;2022-07-17T13:18:37;29.00;21.60
5009;DHT22;2523;51.058;6.922;2022-07-17T13:21:03;29.30;22.20
5009;DHT22;2523;51.058;6.922;2022-07-17T13:23:29;29.40;22.30
5009;DHT22;2523;51.058;6.922;2022-07-17T13:25:55;29.70;22.00
5009;DHT22;2523;51.058;6.922;2022-07-17T13:28:21;29.80;21.60
5009;DHT22;2523;51.058;6.922;2022-07-17T13:30:46;30.10;21.20
5009;DHT22;2523;51.058;6.922;2022-07-17T13:33:13;30.00;20.60
5009;DHT22;2523;51.058;6.922;2022-07-17T13:35:38;29.50;21.30
5009;DHT22;2523;51.058;6.922;2022-07-17T13:38:04;29.30;20.70
5009;DHT22;2523;51.058;6.922;2022-07-17T13:40:32;29.10;20.90
5009;DHT22;2523;51.058;6.922;2022-07-17T13:42:59;29.20;20.90
5009;DHT22;2523;51.058;6.922;2022-07-17T13:45:25;29.20;21.30
5009;DHT22;2523;51.058;6.922;2022-07-17T13:47:51;29.20;21.50
5009;DHT22;2523;51.058;6.922;2022-07-17T13:50:17;29.50;22.00
5009;DHT22;2523;51.058;6.922;2022-07-17T13:52:42;29.70;21.10
5009;DHT22;2523;51.058;6.922;2022-07-17T13:55:08;29.90;21.30
5009;DHT22;2523;51.058;6.922;2022-07-17T13:57:34;30.00;21.00
5009;DHT22;2523;51.058;6.922;2022-07-17T14:00:00;30.10;20.50
5009;DHT22;2523;51.058;6.922;2022-07-17T14:02:26;30.20;20.30
5009;DHT22;2523;51.058;6.922;2022-07-17T14:04:53;30.10;20.00
5009;DHT22;2523;51.058;6.922;2022-07-17T14:07:18;30.10;20.60
5009;DHT22;2523;51.058;6.922;2022-07-17T14:09:44;30.20;19.60
5009;DHT22;2523;51.058;6.922;2022-07-17T14:12:09;30.10;18.30
5009;DHT22;2523;51.058;6.922;2022-07-17T14:14:35;30.00;18.50
5009;DHT22;2523;51.058;6.922;2022-07-17T14:17:01;30.00;18.50
5009;DHT22;2523;51.058;6.922;2022-07-17T14:19:26;30.10;18.60
5009;DHT22;2523;51.058;6.922;2022-07-17T14:21:52;30.10;18.60
5009;DHT22;2523;51.058;6.922;2022-07-17T14:24:17;30.10;18.80
5009;DHT22;2523;51.058;6.922;2022-07-17T14:26:43;30.10;18.60
5009;DHT22;2523;51.058;6.922;2022-07-17T14:29:09;30.00;18.90
5009;DHT22;2523;51.058;6.922;2022-07-17T14:31:35;29.90;17.10
5009;DHT22;2523;51.058;6.922;2022-07-17T14:34:01;29.90;17.90
5009;DHT22;2523;51.058;6.922;2022-07-17T14:36:26;29.90;17.50
5009;DHT22;2523;51.058;6.922;2022-07-17T14:38:52;29.60;16.90
5009;DHT22;2523;51.058;6.922;2022-07-17T14:41:18;29.30;17.30
5009;DHT22;2523;51.058;6.922;2022-07-17T14:43:44;29.60;17.90
5009;DHT22;2523;51.058;6.922;2022-07-17T14:46:10;29.60;17.20
5009;DHT22;2523;51.058;6.922;2022-07-17T14:48:35;29.40;17.50
5009;DHT22;2523;51.058;6.922;2022-07-17T14:51:01;29.40;17.60
5009;DHT22;2523;51.058;6.922;2022-07-17T14:53:27;29.40;16.80
5009;DHT22;2523;51.058;6.922;2022-07-17T14:55:52;29.50;17.30
5009;DHT22;2523;51.058;6.922;2022-07-17T14:58:18;29.60;17.10
5009;DHT22;2523;51.058;6.922;2022-07-17T15:00:43;29.60;16.40
5009;DHT22;2523;51.058;6.922;2022-07-17T15:03:09;29.50;16.50
5009;DHT22;2523;51.058;6.922;2022-07-17T15:05:35;29.60;16.90
5009;DHT22;2523;51.058;6.922;2022-07-17T15:08:01;29.50;17.00
5009;DHT22;2523;51.058;6.922;2022-07-17T15:10:27;29.50;17.60
5009;DHT22;2523;51.058;6.922;2022-07-17T15:12:53;29.50;17.30
5009;DHT22;2523;51.058;6.922;2022-07-17T15:15:18;29.40;17.50
5009;DHT22;2523;51.058;6.922;2022-07-17T15:17:44;29.30;17.80
5009;DHT22;2523;51.058;6.922;2022-07-17T15:20:10;29.30;17.10
5009;DHT22;2523;51.058;6.922;2022-07-17T15:22:36;29.20;17.10
5009;DHT22;2523;51.058;6.922;2022-07-17T15:25:01;29.00;18.50
5009;DHT22;2523;51.058;6.922;2022-07-17T15:27:27;28.80;17.60
5009;DHT22;2523;51.058;6.922;2022-07-17T15:29:53;28.80;18.10
5009;DHT22;2523;51.058;6.922;2022-07-17T15:32:18;28.60;18.00
5009;DHT22;2523;51.058;6.922;2022-07-17T15:34:44;28.60;18.60
5009;DHT22;2523;51.058;6.922;2022-07-17T15:37:09;28.50;18.80
5009;DHT22;2523;51.058;6.922;2022-07-17T15:39:35;28.30;19.00
5009;DHT22;2523;51.058;6.922;2022-07-17T15:42:01;28.30;18.70
5009;DHT22;2523;51.058;6.922;2022-07-17T15:44:26;28.10;18.60
5009;DHT22;2523;51.058;6.922;2022-07-17T15:46:52;28.00;18.80
5009;DHT22;2523;51.058;6.922;2022-07-17T15:49:18;27.80;18.80
5009;DHT22;2523;51.058;6.922;2022-07-17T15:51:45;27.70;18.70
5009;DHT22;2523;51.058;6.922;2022-07-17T15:54:12;27.70;19.40
5009;DHT22;2523;51.058;6.922;2022-07-17T15:56:37;27.70;18.90
5009;DHT22;2523;51.058;6.922;2022-07-17T15:59:03;27.70;18.90
5009;DHT22;2523;51.058;6.922;2022-07-17T16:01:29;27.60;18.90
5009;DHT22;2523;51.058;6.922;2022-07-17T16:03:54;27.60;18.90
5009;DHT22;2523;51.058;6.922;2022-07-17T16:06:20;27.50;19.60
5009;DHT22;2523;51.058;6.922;2022-07-17T16:08:46;27.40;18.80
5009;DHT22;2523;51.058;6.922;2022-07-17T16:11:11;27.40;18.90